Time;durP1;ratioP1;P1;durP2;ratioP2;P2;SDS_P1;SDS_P2;PMS_P1;PMS_P2;Temp;Humidity;BMP_temperature;BMP_pressure;BME280_temperature;BME280_humidity;BME280_pressure;Samples;Min_cycle;Max_cycle;Signal;HPM_P1;HPM_P2
2023/05/06 00:00:47;;;;;;;9.67;8.77;;;;;;;;;;4920464;29;20600;-63
2023/05/06 00:03:16;;;;;;;8.90;8.10;;;;;;;;;;4920161;29;21057;-63
2023/05/06 00:05:44;;;;;;;9.73;8.80;;;;;;;;;;4919567;29;20639;-63
2023/05/06 00:08:15;;;;;;;10.70;8.47;;;;;;;;;;4935437;29;20718;-62
2023/05/06 00:10:43;;;;;;;12.90;8.70;;;;;;;;;;4935321;29;20658;-63
2023/05/06 00:13:11;;;;;;;11.43;9.20;;;;;;;;;;4922568;29;20575;-64
2023/05/06 00:15:40;;;;;;;10.47;9.57;;;;;;;;;;4945276;29;20682;-63
2023/05/06 00:18:09;;;;;;;9.17;8.30;;;;;;;;;;4958988;29;20667;-63
2023/05/06 00:20:38;;;;;;;11.00;10.07;;;;;;;;;;4958184;29;20623;-64
2023/05/06 00:23:06;;;;;;;10.40;8.80;;;;;;;;;;4958974;29;20594;-65
2023/05/06 00:25:34;;;;;;;10.40;9.57;;;;;;;;;;4958989;29;20627;-63
2023/05/06 00:28:02;;;;;;;8.87;8.00;;;;;;;;;;4957759;29;20634;-63
2023/05/06 00:30:31;;;;;;;11.50;9.50;;;;;;;;;;4959448;29;20646;-63
2023/05/06 00:32:59;;;;;;;11.03;9.00;;;;;;;;;;4959253;29;20714;-63
2023/05/06 00:35:29;;;;;;;10.00;9.00;;;;;;;;;;4958341;29;20616;-63
2023/05/06 00:37:58;;;;;;;9.47;8.57;;;;;;;;;;4958822;29;20986;-63
2023/05/06 00:40:29;;;;;;;12.60;9.40;;;;;;;;;;4939994;29;20987;-63
2023/05/06 00:42:58;;;;;;;10.95;9.95;;;;;;;;;;4957951;29;20976;-63
2023/05/06 00:45:26;;;;;;;12.90;10.37;;;;;;;;;;4957587;29;20218;-64
2023/05/06 00:47:55;;;;;;;9.80;9.00;;;;;;;;;;4941653;29;20699;-63
2023/05/06 00:50:24;;;;;;;9.63;8.82;;;;;;;;;;4955462;29;20966;-63
2023/05/06 00:52:54;;;;;;;8.53;7.83;;;;;;;;;;4939391;29;20259;-62
2023/05/06 00:55:22;;;;;;;10.27;9.07;;;;;;;;;;4921559;29;20679;-62
2023/05/06 00:57:51;;;;;;;10.02;9.15;;;;;;;;;;4939330;29;20664;-62
2023/05/06 01:00:20;;;;;;;9.80;9.00;;;;;;;;;;4937781;29;20223;-66
2023/05/06 01:02:48;;;;;;;11.47;10.23;;;;;;;;;;4941968;29;20268;-66
2023/05/06 01:05:17;;;;;;;11.27;10.23;;;;;;;;;;4943048;29;20629;-67
2023/05/06 01:07:48;;;;;;;10.73;9.50;;;;;;;;;;4962650;29;20271;-66
2023/05/06 01:10:22;;;;;;;10.43;9.30;;;;;;;;;;4960021;29;20371;-67
2023/05/06 01:12:54;;;;;;;11.13;9.97;;;;;;;;;;4962031;29;20192;-67
2023/05/06 01:15:26;;;;;;;10.95;9.95;;;;;;;;;;4959588;29;20655;-66
2023/05/06 01:17:58;;;;;;;10.80;9.80;;;;;;;;;;4961259;29;20653;-67
2023/05/06 01:20:27;;;;;;;10.10;9.30;;;;;;;;;;4961656;29;20655;-67
2023/05/06 01:22:56;;;;;;;10.50;9.50;;;;;;;;;;4961362;29;20318;-67
2023/05/06 01:25:26;;;;;;;9.55;8.50;;;;;;;;;;4961555;29;20291;-67
2023/05/06 01:27:55;;;;;;;10.13;9.05;;;;;;;;;;4960342;29;20193;-67
2023/05/06 01:30:23;;;;;;;12.13;10.15;;;;;;;;;;4959535;29;20637;-67
2023/05/06 01:32:58;;;;;;;10.15;8.82;;;;;;;;;;4942164;29;20288;-67
2023/05/06 01:35:30;;;;;;;11.07;10.02;;;;;;;;;;4942599;29;20248;-67
2023/05/06 01:38:03;;;;;;;11.73;10.15;;;;;;;;;;4942262;29;20240;-68
2023/05/06 01:40:33;;;;;;;10.38;9.48;;;;;;;;;;4942560;29;20617;-68
2023/05/06 01:43:02;;;;;;;10.85;9.85;;;;;;;;;;4958602;29;20282;-66
2023/05/06 01:45:34;;;;;;;12.15;10.65;;;;;;;;;;4942623;29;20189;-67
2023/05/06 01:48:03;;;;;;;12.57;11.02;;;;;;;;;;4941744;29;20404;-67
2023/05/06 01:50:31;;;;;;;11.38;10.27;;;;;;;;;;4944791;29;20288;-67
2023/05/06 01:52:59;;;;;;;15.20;10.23;;;;;;;;;;4939369;29;20276;-67
2023/05/06 01:55:28;;;;;;;11.45;10.32;;;;;;;;;;4941885;29;20295;-67
2023/05/06 01:57:57;;;;;;;13.63;11.10;;;;;;;;;;4942573;29;20256;-66
2023/05/06 02:00:27;;;;;;;11.30;10.20;;;;;;;;;;4943095;29;20276;-66
2023/05/06 02:03:08;;;;;;;11.75;10.55;;;;;;;;;;4943635;29;20720;-67
2023/05/06 02:05:55;;;;;;;18.23;10.70;;;;;;;;;;4929647;29;20320;-67
2023/05/06 02:08:25;;;;;;;22.77;10.80;;;;;;;;;;4958178;28;20260;-67
2023/05/06 02:10:53;;;;;;;12.35;11.05;;;;;;;;;;4956504;29;20318;-66
2023/05/06 02:13:23;;;;;;;11.13;10.15;;;;;;;;;;4935962;29;20636;-67
2023/05/06 02:15:53;;;;;;;14.38;11.38;;;;;;;;;;4946716;29;20259;-67
2023/05/06 02:18:22;;;;;;;12.13;10.65;;;;;;;;;;4961754;29;20291;-67
2023/05/06 02:20:53;;;;;;;12.25;10.80;;;;;;;;;;4943810;29;20192;-66
2023/05/06 02:23:21;;;;;;;14.73;12.80;;;;;;;;;;4943338;29;20473;-67
2023/05/06 02:25:50;;;;;;;14.65;11.65;;;;;;;;;;4943680;29;20364;-66
2023/05/06 02:28:18;;;;;;;13.18;11.82;;;;;;;;;;4942698;29;20283;-66
2023/05/06 02:30:48;;;;;;;15.23;11.35;;;;;;;;;;4955851;29;20272;-66
2023/05/06 02:33:16;;;;;;;13.60;12.20;;;;;;;;;;4934333;29;20294;-66
2023/05/06 02:35:45;;;;;;;15.30;12.50;;;;;;;;;;4933906;29;20738;-67
2023/05/06 02:38:13;;;;;;;16.35;12.55;;;;;;;;;;4926017;29;20212;-68
2023/05/06 02:40:44;;;;;;;15.82;12.60;;;;;;;;;;4943045;29;20608;-68
2023/05/06 02:43:22;;;;;;;14.40;12.88;;;;;;;;;;4942904;29;20287;-67
2023/05/06 02:45:52;;;;;;;13.32;11.90;;;;;;;;;;4943741;29;20280;-67
2023/05/06 02:48:20;;;;;;;12.80;11.57;;;;;;;;;;4943065;29;20284;-68
2023/05/06 02:50:48;;;;;;;14.75;11.68;;;;;;;;;;4943003;29;20283;-67
2023/05/06 02:53:17;;;;;;;15.07;11.23;;;;;;;;;;4942341;29;20283;-68
2023/05/06 02:55:45;;;;;;;13.07;11.15;;;;;;;;;;4943853;29;20283;-67
2023/05/06 02:58:13;;;;;;;13.07;11.85;;;;;;;;;;4942547;29;20297;-68
2023/05/06 03:00:42;;;;;;;13.68;12.30;;;;;;;;;;4958121;29;20711;-67
2023/05/06 03:03:11;;;;;;;13.18;11.48;;;;;;;;;;4944992;29;20288;-67
2023/05/06 03:05:39;;;;;;;13.07;11.75;;;;;;;;;;4941629;29;20290;-66
2023/05/06 03:08:08;;;;;;;12.57;11.38;;;;;;;;;;4942813;29;20260;-66
2023/05/06 03:10:37;;;;;;;11.65;10.50;;;;;;;;;;4924528;29;20342;-67
2023/05/06 03:13:05;;;;;;;11.07;9.95;;;;;;;;;;4924655;29;20328;-68
2023/05/06 03:15:34;;;;;;;11.60;10.40;;;;;;;;;;4925358;29;20216;-68
2023/05/06 03:18:02;;;;;;;15.13;11.27;;;;;;;;;;4941869;29;20283;-68
2023/05/06 03:20:32;;;;;;;15.07;10.95;;;;;;;;;;4912067;29;20287;-67
2023/05/06 03:23:02;;;;;;;15.88;10.77;;;;;;;;;;4945230;29;20276;-67
2023/05/06 03:25:30;;;;;;;13.25;10.98;;;;;;;;;;4946746;29;20263;-68
2023/05/06 03:27:59;;;;;;;12.30;10.50;;;;;;;;;;4944336;29;20295;-68
2023/05/06 03:30:29;;;;;;;13.55;11.90;;;;;;;;;;4914048;29;20279;-68
2023/05/06 03:33:01;;;;;;;13.98;11.13;;;;;;;;;;4929569;29;20276;-68
2023/05/06 03:35:34;;;;;;;12.50;11.35;;;;;;;;;;4931978;29;20209;-68
2023/05/06 03:38:02;;;;;;;12.38;11.27;;;;;;;;;;4945468;29;20339;-68
2023/05/06 03:40:41;;;;;;;11.57;10.35;;;;;;;;;;4961431;29;20778;-67
2023/05/06 03:43:10;;;;;;;16.98;12.45;;;;;;;;;;4947500;29;20295;-68
2023/05/06 03:45:39;;;;;;;14.20;11.07;;;;;;;;;;4962057;29;20279;-67
2023/05/06 03:48:07;;;;;;;12.90;11.55;;;;;;;;;;4928198;29;20281;-67
2023/05/06 03:50:41;;;;;;;12.77;11.50;;;;;;;;;;4932478;29;20248;-67
2023/05/06 03:53:18;;;;;;;14.63;13.00;;;;;;;;;;4928743;29;20280;-68
2023/05/06 03:56:20;;;;;;;13.00;11.70;;;;;;;;;;4944965;29;20205;-68
2023/05/06 03:58:50;;;;;;;12.30;11.00;;;;;;;;;;4948114;29;20208;-68
2023/05/06 04:01:20;;;;;;;13.18;11.88;;;;;;;;;;4944179;29;20214;-67
2023/05/06 04:03:50;;;;;;;15.15;12.38;;;;;;;;;;4942725;29;20208;-68
2023/05/06 04:06:20;;;;;;;14.30;12.55;;;;;;;;;;4940052;29;20277;-68
2023/05/06 04:08:48;;;;;;;15.32;12.18;;;;;;;;;;4944512;29;20209;-68
2023/05/06 04:11:18;;;;;;;13.98;12.02;;;;;;;;;;4944995;29;20205;-67
2023/05/06 04:13:47;;;;;;;14.30;10.75;;;;;;;;;;4940759;29;20571;-67
2023/05/06 04:16:19;;;;;;;13.65;12.18;;;;;;;;;;4944923;29;20205;-68
2023/05/06 04:18:48;;;;;;;12.10;11.00;;;;;;;;;;4945569;29;20201;-68
2023/05/06 04:21:17;;;;;;;11.73;10.63;;;;;;;;;;4945046;29;20193;-68
2023/05/06 04:23:53;;;;;;;18.15;11.05;;;;;;;;;;4945608;29;20580;-68
2023/05/06 04:26:26;;;;;;;13.83;12.37;;;;;;;;;;4945686;29;20196;-67
2023/05/06 04:28:55;;;;;;;12.77;11.05;;;;;;;;;;4944349;29;20734;-68
2023/05/06 04:31:23;;;;;;;13.05;11.70;;;;;;;;;;4928062;29;20231;-68
2023/05/06 04:33:52;;;;;;;17.92;12.13;;;;;;;;;;4944331;29;20216;-67
2023/05/06 04:36:23;;;;;;;13.25;11.70;;;;;;;;;;4945753;29;20529;-68
2023/05/06 04:39:11;;;;;;;13.40;12.15;;;;;;;;;;4945128;29;20275;-67
2023/05/06 04:41:41;;;;;;;12.57;10.98;;;;;;;;;;4943864;29;20292;-68
2023/05/06 04:44:10;;;;;;;11.88;10.48;;;;;;;;;;4943718;29;20292;-68
2023/05/06 04:46:38;;;;;;;11.15;10.05;;;;;;;;;;4927582;29;20209;-68
2023/05/06 04:49:06;;;;;;;12.00;10.82;;;;;;;;;;4943232;29;20215;-67
2023/05/06 04:51:35;;;;;;;10.43;9.45;;;;;;;;;;4942985;29;20283;-68
2023/05/06 04:54:04;;;;;;;10.52;9.50;;;;;;;;;;4928563;29;20232;-68
2023/05/06 04:56:33;;;;;;;10.27;9.30;;;;;;;;;;4944709;29;20280;-68
2023/05/06 04:59:02;;;;;;;10.27;9.20;;;;;;;;;;4936154;29;20265;-68
2023/05/06 05:01:30;;;;;;;10.27;9.25;;;;;;;;;;4913241;29;20256;-68
2023/05/06 05:03:59;;;;;;;12.20;10.98;;;;;;;;;;4924441;29;20265;-68
2023/05/06 05:06:27;;;;;;;11.10;9.50;;;;;;;;;;4933987;29;20644;-68
2023/05/06 05:08:55;;;;;;;9.80;8.75;;;;;;;;;;4942049;29;20264;-68
2023/05/06 05:11:24;;;;;;;10.45;9.02;;;;;;;;;;4942554;29;20192;-68
2023/05/06 05:13:54;;;;;;;9.68;8.77;;;;;;;;;;4933200;29;20280;-68
2023/05/06 05:16:23;;;;;;;9.88;9.07;;;;;;;;;;4932734;29;20283;-68
2023/05/06 05:18:51;;;;;;;10.85;8.68;;;;;;;;;;4934038;29;20291;-68
2023/05/06 05:21:25;;;;;;;9.80;8.77;;;;;;;;;;4943457;29;20299;-68
2023/05/06 05:23:53;;;;;;;9.65;8.65;;;;;;;;;;4942912;29;20291;-68
2023/05/06 05:26:21;;;;;;;10.77;9.77;;;;;;;;;;4943019;29;20279;-68
2023/05/06 05:28:52;;;;;;;10.47;9.33;;;;;;;;;;4933659;29;20695;-68
2023/05/06 05:31:22;;;;;;;10.27;9.38;;;;;;;;;;4941838;29;20631;-66
2023/05/06 05:33:50;;;;;;;11.20;10.20;;;;;;;;;;4941848;29;20261;-68
2023/05/06 05:36:22;;;;;;;10.70;9.80;;;;;;;;;;4948607;29;20703;-68
2023/05/06 05:38:57;;;;;;;11.10;10.10;;;;;;;;;;4932537;29;20192;-68
2023/05/06 05:41:28;;;;;;;11.60;9.50;;;;;;;;;;4916446;29;20739;-68
2023/05/06 05:43:57;;;;;;;11.17;10.07;;;;;;;;;;4939342;29;20710;-67
2023/05/06 05:46:28;;;;;;;10.13;9.30;;;;;;;;;;4933188;29;20720;-68
2023/05/06 05:48:57;;;;;;;9.15;8.35;;;;;;;;;;4938725;29;20646;-68
2023/05/06 05:51:26;;;;;;;9.57;8.77;;;;;;;;;;4946728;29;20287;-68
2023/05/06 05:53:55;;;;;;;11.10;10.00;;;;;;;;;;4947185;29;20781;-68
2023/05/06 05:56:25;;;;;;;9.70;8.70;;;;;;;;;;4927125;29;20654;-67
2023/05/06 05:58:54;;;;;;;9.60;8.70;;;;;;;;;;4927172;29;20591;-67
2023/05/06 06:01:22;;;;;;;11.90;8.40;;;;;;;;;;4942853;29;20706;-68
2023/05/06 06:03:53;;;;;;;9.20;8.30;;;;;;;;;;4944313;29;20682;-68
2023/05/06 06:06:22;;;;;;;9.87;8.87;;;;;;;;;;4955421;29;20698;-68
2023/05/06 06:08:51;;;;;;;9.63;8.63;;;;;;;;;;4950883;29;20726;-68
2023/05/06 06:11:19;;;;;;;9.07;8.17;;;;;;;;;;4943808;29;20690;-67
2023/05/06 06:13:47;;;;;;;10.33;9.43;;;;;;;;;;4949419;29;20730;-68
2023/05/06 06:16:16;;;;;;;9.30;8.30;;;;;;;;;;4947086;29;21036;-68
2023/05/06 06:18:44;;;;;;;8.70;8.00;;;;;;;;;;4943775;29;21237;-68
2023/05/06 06:21:14;;;;;;;8.77;8.07;;;;;;;;;;4941902;29;20751;-68
2023/05/06 06:23:43;;;;;;;9.60;8.57;;;;;;;;;;4944668;29;20674;-67
2023/05/06 06:26:12;;;;;;;9.50;8.57;;;;;;;;;;4926215;29;20779;-67
2023/05/06 06:28:40;;;;;;;9.40;7.97;;;;;;;;;;4943401;29;21270;-67
2023/05/06 06:31:09;;;;;;;9.17;8.37;;;;;;;;;;4942488;29;21088;-67
2023/05/06 06:33:37;;;;;;;8.13;7.17;;;;;;;;;;4942035;29;20693;-68
2023/05/06 06:36:05;;;;;;;8.10;7.37;;;;;;;;;;4926069;29;20719;-68
2023/05/06 06:38:35;;;;;;;7.80;7.00;;;;;;;;;;4925167;29;20738;-68
2023/05/06 06:41:04;;;;;;;6.83;6.30;;;;;;;;;;4942357;29;20751;-67
2023/05/06 06:43:32;;;;;;;8.20;7.33;;;;;;;;;;4940029;29;20730;-68
2023/05/06 06:46:02;;;;;;;8.63;7.10;;;;;;;;;;4927616;29;21136;-67
2023/05/06 06:48:30;;;;;;;13.83;8.17;;;;;;;;;;4941222;29;20702;-67
2023/05/06 06:50:59;;;;;;;7.33;6.63;;;;;;;;;;4941064;29;21238;-68
2023/05/06 06:53:27;;;;;;;7.50;6.93;;;;;;;;;;4939304;29;20719;-67
2023/05/06 06:55:57;;;;;;;7.10;6.50;;;;;;;;;;4941173;29;21037;-67
2023/05/06 06:58:25;;;;;;;7.60;7.00;;;;;;;;;;4940849;29;20711;-67
2023/05/06 07:00:53;;;;;;;7.47;6.63;;;;;;;;;;4939705;29;20703;-67
2023/05/06 07:03:21;;;;;;;6.70;6.10;;;;;;;;;;4925256;29;20670;-68
2023/05/06 07:05:50;;;;;;;6.23;5.70;;;;;;;;;;4939048;29;20720;-68
2023/05/06 07:08:20;;;;;;;7.37;6.67;;;;;;;;;;4939506;29;21212;-68
2023/05/06 07:10:48;;;;;;;7.00;6.40;;;;;;;;;;4939601;29;20653;-67
2023/05/06 07:13:19;;;;;;;12.20;6.97;;;;;;;;;;4939195;29;20706;-68
2023/05/06 07:15:47;;;;;;;8.37;5.77;;;;;;;;;;4938546;29;20623;-67
2023/05/06 07:18:15;;;;;;;7.10;6.00;;;;;;;;;;4938446;29;20715;-67
2023/05/06 07:20:44;;;;;;;6.40;5.80;;;;;;;;;;4939174;29;20713;-68
2023/05/06 07:23:12;;;;;;;5.77;5.37;;;;;;;;;;4925884;29;20606;-68
2023/05/06 07:25:40;;;;;;;7.07;6.37;;;;;;;;;;4923456;29;21244;-68
2023/05/06 07:28:08;;;;;;;7.83;6.00;;;;;;;;;;4924136;29;20726;-68
2023/05/06 07:30:39;;;;;;;6.90;6.30;;;;;;;;;;4927880;29;20837;-68
2023/05/06 07:33:08;;;;;;;11.97;6.47;;;;;;;;;;4940566;29;20594;-69
2023/05/06 07:35:37;;;;;;;6.70;5.70;;;;;;;;;;4940323;29;20698;-68
2023/05/06 07:38:05;;;;;;;6.67;6.03;;;;;;;;;;4933319;29;20715;-68
2023/05/06 07:40:33;;;;;;;7.43;5.70;;;;;;;;;;4941628;29;20670;-68
2023/05/06 07:43:02;;;;;;;5.43;4.93;;;;;;;;;;4941763;29;20709;-68
2023/05/06 07:45:31;;;;;;;9.20;4.80;;;;;;;;;;4942537;29;20707;-67
2023/05/06 07:48:00;;;;;;;6.17;5.10;;;;;;;;;;4941973;29;20667;-68
2023/05/06 07:50:28;;;;;;;5.80;5.30;;;;;;;;;;4942370;29;20679;-67
2023/05/06 07:52:57;;;;;;;8.00;4.93;;;;;;;;;;4941663;29;21221;-68
2023/05/06 07:55:25;;;;;;;6.70;4.20;;;;;;;;;;4941665;29;21242;-67
2023/05/06 07:57:53;;;;;;;5.40;4.90;;;;;;;;;;4940544;29;20704;-68
2023/05/06 08:00:21;;;;;;;5.27;4.73;;;;;;;;;;4938781;29;20723;-68
2023/05/06 08:02:50;;;;;;;8.83;5.10;;;;;;;;;;4927298;29;20630;-68
2023/05/06 08:05:19;;;;;;;6.17;5.50;;;;;;;;;;4940783;29;20683;-68
2023/05/06 08:07:49;;;;;;;4.17;3.87;;;;;;;;;;4925149;29;20724;-68
2023/05/06 08:10:17;;;;;;;5.23;4.73;;;;;;;;;;4934458;29;20844;-69
2023/05/06 08:12:45;;;;;;;4.67;4.37;;;;;;;;;;4925782;29;20732;-68
2023/05/06 08:15:14;;;;;;;3.90;3.50;;;;;;;;;;4939299;29;20715;-68
2023/05/06 08:17:42;;;;;;;4.47;4.07;;;;;;;;;;4944551;29;20763;-68
2023/05/06 08:20:11;;;;;;;9.13;4.27;;;;;;;;;;4944203;29;20723;-68
2023/05/06 08:22:41;;;;;;;4.67;4.27;;;;;;;;;;4944191;29;20750;-68
2023/05/06 08:25:10;;;;;;;3.67;3.47;;;;;;;;;;4943718;29;20706;-68
2023/05/06 08:27:38;;;;;;;4.90;4.40;;;;;;;;;;4945941;29;20699;-68
2023/05/06 08:30:07;;;;;;;4.33;3.40;;;;;;;;;;4945639;29;20813;-67
2023/05/06 08:32:35;;;;;;;6.83;3.53;;;;;;;;;;4947498;29;20688;-67
2023/05/06 08:35:03;;;;;;;3.60;3.27;;;;;;;;;;4940200;29;21039;-68
2023/05/06 08:37:33;;;;;;;3.80;3.13;;;;;;;;;;4941022;29;20704;-68
2023/05/06 08:40:04;;;;;;;3.33;3.13;;;;;;;;;;4946145;29;20756;-68
2023/05/06 08:42:33;;;;;;;2.87;2.67;;;;;;;;;;4948154;29;20715;-68
2023/05/06 08:45:01;;;;;;;2.63;2.43;;;;;;;;;;4945535;29;20711;-68
2023/05/06 08:47:29;;;;;;;3.13;2.70;;;;;;;;;;4950138;29;20674;-68
2023/05/06 08:49:58;;;;;;;2.17;2.00;;;;;;;;;;4950035;29;20696;-68
2023/05/06 08:52:27;;;;;;;9.13;3.57;;;;;;;;;;4960531;29;20731;-67
2023/05/06 08:55:00;;;;;;;3.37;3.07;;;;;;;;;;4945464;29;20699;-68
2023/05/06 08:57:30;;;;;;;2.90;2.77;;;;;;;;;;4948498;29;20668;-67
2023/05/06 08:59:58;;;;;;;3.83;2.83;;;;;;;;;;4946851;29;20724;-67
2023/05/06 09:02:26;;;;;;;2.30;2.20;;;;;;;;;;4929209;29;20754;-66
2023/05/06 09:04:55;;;;;;;3.43;3.23;;;;;;;;;;4943769;29;20731;-67
2023/05/06 09:07:24;;;;;;;3.30;3.00;;;;;;;;;;4943138;29;21158;-66
2023/05/06 09:09:52;;;;;;;2.50;2.40;;;;;;;;;;4943975;29;20825;-67
2023/05/06 09:12:20;;;;;;;4.13;3.80;;;;;;;;;;4936962;29;20715;-67
2023/05/06 09:14:51;;;;;;;2.93;2.83;;;;;;;;;;4938178;29;20695;-67
2023/05/06 09:17:25;;;;;;;3.23;3.03;;;;;;;;;;4947542;28;20706;-67
2023/05/06 09:19:55;;;;;;;3.33;3.00;;;;;;;;;;4945653;29;20684;-67
2023/05/06 09:22:24;;;;;;;3.53;3.33;;;;;;;;;;4945018;29;20719;-67
2023/05/06 09:24:55;;;;;;;3.53;3.33;;;;;;;;;;4949945;29;20712;-67
2023/05/06 09:27:24;;;;;;;4.30;3.90;;;;;;;;;;4949979;29;20740;-65
2023/05/06 09:30:04;;;;;;;4.40;4.00;;;;;;;;;;4927672;29;20731;-66
2023/05/06 09:32:34;;;;;;;3.63;3.43;;;;;;;;;;4950112;29;20703;-68
2023/05/06 09:35:03;;;;;;;3.20;3.10;;;;;;;;;;4960937;29;20692;-67
2023/05/06 09:37:31;;;;;;;4.17;3.77;;;;;;;;;;4936925;29;20729;-68
2023/05/06 09:40:00;;;;;;;3.67;3.43;;;;;;;;;;4953335;29;20719;-68
2023/05/06 09:42:29;;;;;;;3.47;3.27;;;;;;;;;;4952929;29;20767;-68
2023/05/06 09:44:58;;;;;;;5.80;3.33;;;;;;;;;;4947733;29;20667;-67
2023/05/06 09:47:28;;;;;;;3.33;3.00;;;;;;;;;;4937584;29;20651;-68
2023/05/06 09:49:58;;;;;;;3.70;3.50;;;;;;;;;;4949603;29;21144;-68
2023/05/06 09:52:27;;;;;;;3.70;3.50;;;;;;;;;;4949658;29;20696;-66
2023/05/06 09:54:55;;;;;;;3.83;3.63;;;;;;;;;;4950320;29;20663;-68
2023/05/06 09:57:24;;;;;;;4.97;3.90;;;;;;;;;;4949314;29;20704;-68
2023/05/06 09:59:52;;;;;;;4.30;3.90;;;;;;;;;;4950970;29;20639;-67
2023/05/06 10:02:20;;;;;;;3.70;3.40;;;;;;;;;;4935289;29;20780;-67
2023/05/06 10:04:50;;;;;;;3.23;3.03;;;;;;;;;;4946443;29;20663;-68
2023/05/06 10:07:22;;;;;;;3.37;3.20;;;;;;;;;;4949578;29;20672;-68
2023/05/06 10:09:51;;;;;;;3.30;3.10;;;;;;;;;;4942388;29;20740;-67
2023/05/06 10:12:19;;;;;;;3.67;3.37;;;;;;;;;;4936534;29;20672;-68
2023/05/06 10:14:48;;;;;;;5.13;3.27;;;;;;;;;;4949272;29;20660;-67
2023/05/06 10:17:16;;;;;;;3.70;3.50;;;;;;;;;;4947244;29;20704;-67
2023/05/06 10:19:46;;;;;;;3.97;3.63;;;;;;;;;;4952586;29;20675;-67
2023/05/06 10:22:22;;;;;;;6.83;3.47;;;;;;;;;;4942235;29;20727;-68
2023/05/06 10:24:56;;;;;;;3.30;3.10;;;;;;;;;;4951710;29;20715;-67
2023/05/06 10:27:25;;;;;;;3.67;3.47;;;;;;;;;;4939498;29;20687;-68
2023/05/06 10:29:54;;;;;;;3.40;3.20;;;;;;;;;;4950789;28;20720;-67
2023/05/06 10:32:22;;;;;;;3.70;3.50;;;;;;;;;;4940441;29;20736;-67
2023/05/06 10:34:55;;;;;;;3.70;3.40;;;;;;;;;;4962614;29;20690;-68
2023/05/06 10:37:27;;;;;;;4.13;3.83;;;;;;;;;;4951584;29;20722;-68
2023/05/06 10:39:56;;;;;;;3.83;3.63;;;;;;;;;;4962395;29;20659;-68
2023/05/06 10:42:27;;;;;;;3.97;3.77;;;;;;;;;;4937273;29;20809;-68
2023/05/06 10:44:59;;;;;;;4.50;4.30;;;;;;;;;;4954296;29;20776;-67
2023/05/06 10:47:27;;;;;;;4.00;3.80;;;;;;;;;;4954957;29;21125;-67
2023/05/06 10:50:14;;;;;;;4.20;3.87;;;;;;;;;;4962464;29;20799;-72
2023/05/06 10:52:47;;;;;;;4.80;4.60;;;;;;;;;;4927184;29;20677;-68
2023/05/06 10:55:26;;;;;;;6.77;4.60;;;;;;;;;;4938739;29;20769;-68
2023/05/06 10:57:55;;;;;;;4.80;4.60;;;;;;;;;;4939013;29;20691;-67
2023/05/06 11:00:24;;;;;;;4.63;4.43;;;;;;;;;;4939505;29;20709;-68
2023/05/06 11:02:56;;;;;;;4.90;4.47;;;;;;;;;;4952919;29;20750;-67
2023/05/06 11:05:25;;;;;;;4.70;4.50;;;;;;;;;;4959602;29;20730;-67
2023/05/06 11:08:07;;;;;;;4.77;4.30;;;;;;;;;;4960110;28;20707;-66
2023/05/06 11:10:36;;;;;;;5.40;4.93;;;;;;;;;;4961404;29;20714;-66
2023/05/06 11:13:19;;;;;;;5.50;5.10;;;;;;;;;;4962893;29;20755;-67
2023/05/06 11:15:49;;;;;;;4.80;4.60;;;;;;;;;;4961296;29;20648;-66
2023/05/06 11:18:36;;;;;;;5.33;5.13;;;;;;;;;;4960481;29;21296;-68
2023/05/06 11:21:25;;;;;;;5.40;5.00;;;;;;;;;;4943422;29;20671;-66
2023/05/06 11:24:11;;;;;;;5.63;5.33;;;;;;;;;;4959673;29;20726;-68
2023/05/06 11:26:43;;;;;;;5.73;5.50;;;;;;;;;;4959193;29;20679;-67
2023/05/06 11:29:11;;;;;;;6.50;6.00;;;;;;;;;;4960354;29;20709;-67
2023/05/06 11:31:40;;;;;;;5.80;5.60;;;;;;;;;;4959705;29;20706;-68
2023/05/06 11:34:09;;;;;;;5.73;5.50;;;;;;;;;;4942559;29;21272;-68
2023/05/06 11:36:46;;;;;;;5.90;5.70;;;;;;;;;;4959630;29;21397;-67
2023/05/06 11:39:15;;;;;;;6.33;6.13;;;;;;;;;;4960726;28;21241;-68
2023/05/06 11:41:43;;;;;;;6.20;5.93;;;;;;;;;;4962156;29;20794;-67
2023/05/06 11:44:13;;;;;;;6.27;5.90;;;;;;;;;;4964166;29;20735;-66
2023/05/06 11:46:44;;;;;;;6.60;6.20;;;;;;;;;;4965669;29;20683;-67
2023/05/06 11:49:14;;;;;;;6.80;6.50;;;;;;;;;;4966292;29;20671;-67
2023/05/06 11:51:42;;;;;;;7.00;6.70;;;;;;;;;;4964553;29;20710;-67
2023/05/06 11:54:11;;;;;;;7.10;6.80;;;;;;;;;;4948444;29;20680;-68
2023/05/06 11:56:45;;;;;;;7.30;7.00;;;;;;;;;;4957616;29;20697;-67
2023/05/06 11:59:14;;;;;;;7.40;7.10;;;;;;;;;;4945804;29;20683;-67
2023/05/06 12:01:43;;;;;;;6.90;6.70;;;;;;;;;;4944800;29;20727;-66
2023/05/06 12:04:11;;;;;;;7.83;7.50;;;;;;;;;;4943774;29;21094;-67
2023/05/06 12:06:40;;;;;;;7.60;7.30;;;;;;;;;;4946651;29;20683;-68
2023/05/06 12:09:10;;;;;;;8.07;7.40;;;;;;;;;;4944470;29;20810;-67
2023/05/06 12:11:38;;;;;;;7.17;6.73;;;;;;;;;;4942671;29;20695;-67
2023/05/06 12:14:10;;;;;;;7.33;7.03;;;;;;;;;;4947174;29;20676;-66
2023/05/06 12:16:38;;;;;;;7.00;6.80;;;;;;;;;;4941307;29;20709;-67
2023/05/06 12:19:06;;;;;;;8.17;7.77;;;;;;;;;;4944596;29;20726;-67
2023/05/06 12:21:38;;;;;;;7.23;6.93;;;;;;;;;;4945846;29;20687;-67
2023/05/06 12:24:06;;;;;;;7.20;6.90;;;;;;;;;;4946742;29;20703;-66
2023/05/06 12:26:47;;;;;;;6.93;6.60;;;;;;;;;;4930886;29;20679;-68
2023/05/06 12:29:17;;;;;;;7.27;6.87;;;;;;;;;;4962826;29;20714;-68
2023/05/06 12:31:46;;;;;;;6.70;6.43;;;;;;;;;;4966045;29;20715;-66
2023/05/06 12:34:16;;;;;;;6.90;6.60;;;;;;;;;;4965453;29;20675;-68
2023/05/06 12:36:45;;;;;;;7.10;6.90;;;;;;;;;;4965931;29;20706;-68
2023/05/06 12:39:14;;;;;;;7.37;7.03;;;;;;;;;;4964860;29;20703;-67
2023/05/06 12:41:42;;;;;;;7.20;6.80;;;;;;;;;;4965461;29;20715;-68
2023/05/06 12:44:32;;;;;;;7.20;6.90;;;;;;;;;;4965533;29;20711;-67
2023/05/06 12:47:01;;;;;;;7.40;7.10;;;;;;;;;;4965336;29;20680;-68
2023/05/06 12:49:44;;;;;;;7.80;7.30;;;;;;;;;;4964761;29;20711;-67
2023/05/06 12:52:12;;;;;;;7.50;7.20;;;;;;;;;;4964604;28;20681;-68
2023/05/06 12:54:40;;;;;;;8.50;8.00;;;;;;;;;;4964942;29;20704;-67
2023/05/06 12:57:09;;;;;;;6.90;6.70;;;;;;;;;;4963175;29;20710;-68
2023/05/06 12:59:39;;;;;;;7.97;7.37;;;;;;;;;;4962777;29;21233;-67
2023/05/06 13:02:07;;;;;;;7.90;7.40;;;;;;;;;;4961581;29;20706;-67
2023/05/06 13:04:35;;;;;;;7.40;7.00;;;;;;;;;;4962788;29;20746;-67
2023/05/06 13:07:03;;;;;;;6.63;6.27;;;;;;;;;;4962750;29;20683;-67
2023/05/06 13:09:32;;;;;;;6.93;6.63;;;;;;;;;;4961802;29;20750;-66
2023/05/06 13:12:00;;;;;;;6.80;6.60;;;;;;;;;;4962867;29;21071;-67
2023/05/06 13:14:28;;;;;;;7.40;6.80;;;;;;;;;;4962440;29;20710;-67
2023/05/06 13:17:03;;;;;;;7.10;6.90;;;;;;;;;;4962203;29;20679;-67
2023/05/06 13:19:31;;;;;;;6.40;6.20;;;;;;;;;;4963049;29;20674;-67
2023/05/06 13:21:59;;;;;;;7.50;7.10;;;;;;;;;;4963110;29;20687;-68
2023/05/06 13:24:27;;;;;;;7.90;7.50;;;;;;;;;;4962445;29;20754;-67
2023/05/06 13:26:58;;;;;;;7.30;7.00;;;;;;;;;;4945279;29;20706;-67
2023/05/06 13:29:26;;;;;;;7.70;7.30;;;;;;;;;;4963502;29;20674;-67
2023/05/06 13:31:55;;;;;;;7.10;6.70;;;;;;;;;;4963306;29;20698;-68
2023/05/06 13:34:24;;;;;;;7.27;6.97;;;;;;;;;;4963400;29;20739;-68
2023/05/06 13:36:55;;;;;;;7.20;7.00;;;;;;;;;;4945167;29;20676;-68
2023/05/06 13:39:24;;;;;;;7.00;6.70;;;;;;;;;;4945307;29;20667;-67
2023/05/06 13:41:53;;;;;;;7.77;7.30;;;;;;;;;;4943108;29;20628;-69
2023/05/06 13:44:21;;;;;;;6.80;6.60;;;;;;;;;;4959213;29;20738;-68
2023/05/06 13:46:49;;;;;;;7.20;6.90;;;;;;;;;;4943368;29;20692;-69
2023/05/06 13:49:18;;;;;;;7.33;7.00;;;;;;;;;;4943805;29;20687;-68
2023/05/06 13:51:48;;;;;;;7.30;7.10;;;;;;;;;;4933875;29;20735;-67
2023/05/06 13:54:16;;;;;;;7.33;6.90;;;;;;;;;;4923967;29;20710;-68
2023/05/06 13:56:45;;;;;;;7.20;7.00;;;;;;;;;;4923043;29;20689;-68
2023/05/06 13:59:13;;;;;;;7.30;7.00;;;;;;;;;;4924588;29;20633;-69
2023/05/06 14:01:41;;;;;;;7.13;6.93;;;;;;;;;;4942838;29;20615;-69
2023/05/06 14:04:09;;;;;;;7.70;7.20;;;;;;;;;;4941554;29;20679;-68
2023/05/06 14:06:37;;;;;;;7.70;7.30;;;;;;;;;;4943196;29;20599;-67
2023/05/06 14:09:07;;;;;;;7.40;7.10;;;;;;;;;;4925962;29;20735;-67
2023/05/06 14:11:36;;;;;;;7.83;7.57;;;;;;;;;;4942267;29;20655;-66
2023/05/06 14:14:04;;;;;;;7.47;7.17;;;;;;;;;;4941246;29;20608;-68
2023/05/06 14:16:32;;;;;;;7.60;7.30;;;;;;;;;;4942590;29;20636;-68
2023/05/06 14:19:00;;;;;;;7.07;6.87;;;;;;;;;;4942824;29;20616;-67
2023/05/06 14:21:28;;;;;;;7.70;7.23;;;;;;;;;;4941476;29;20616;-68
2023/05/06 14:23:56;;;;;;;8.93;8.53;;;;;;;;;;4941813;29;20736;-68
2023/05/06 14:26:25;;;;;;;7.13;6.80;;;;;;;;;;4941472;29;20617;-68
2023/05/06 14:28:53;;;;;;;7.90;7.40;;;;;;;;;;4942855;29;20609;-68
2023/05/06 14:31:21;;;;;;;6.87;6.67;;;;;;;;;;4942346;29;20609;-68
2023/05/06 14:33:49;;;;;;;7.13;6.80;;;;;;;;;;4941652;29;20616;-68
2023/05/06 14:36:20;;;;;;;7.17;6.80;;;;;;;;;;4941369;29;20691;-68
2023/05/06 14:38:48;;;;;;;7.20;6.90;;;;;;;;;;4935797;29;20613;-68
2023/05/06 14:41:16;;;;;;;7.30;6.90;;;;;;;;;;4941651;29;20632;-68
2023/05/06 14:43:46;;;;;;;6.57;6.37;;;;;;;;;;4923797;29;20631;-67
2023/05/06 14:46:14;;;;;;;6.93;6.63;;;;;;;;;;4924316;29;20643;-67
2023/05/06 14:48:44;;;;;;;7.30;6.90;;;;;;;;;;4941140;29;20759;-67
2023/05/06 14:51:12;;;;;;;7.20;6.90;;;;;;;;;;4941121;29;21002;-68